sensor_id;sensor_type;location;lat;lon;timestamp;pressure;altitude;pressure_sealevel;temperature;humidity
44996;BME280;30729;49.486;10.792;2022-08-01T00:00:31;97539.44;;;21.70;100.00
44996;BME280;30729;49.486;10.792;2022-08-01T00:02:57;97542.72;;;21.60;100.00
44996;BME280;30729;49.486;10.792;2022-08-01T00:05:22;97537.06;;;21.74;100.00
44996;BME280;30729;49.486;10.792;2022-08-01T00:07:48;97539.66;;;21.72;100.00
44996;BME280;30729;49.486;10.792;2022-08-01T00:10:15;97531.38;;;21.74;100.00
44996;BME280;30729;49.486;10.792;2022-08-01T00:12:41;97541.16;;;21.73;100.00
44996;BME280;30729;49.486;10.792;2022-08-01T00:15:09;97538.13;;;21.71;100.00
44996;BME280;30729;49.486;10.792;2022-08-01T00:17:35;97540.66;;;21.61;100.00
44996;BME280;30729;49.486;10.792;2022-08-01T00:20:01;97547.72;;;21.54;100.00
44996;BME280;30729;49.486;10.792;2022-08-01T00:22:28;97549.13;;;21.48;100.00
44996;BME280;30729;49.486;10.792;2022-08-01T00:24:53;97545.56;;;21.47;100.00
44996;BME280;30729;49.486;10.792;2022-08-01T00:27:19;97551.28;;;21.42;100.00
44996;BME280;30729;49.486;10.792;2022-08-01T00:29:44;97547.81;;;21.49;100.00
44996;BME280;30729;49.486;10.792;2022-08-01T00:32:09;97554.03;;;21.47;100.00
44996;BME280;30729;49.486;10.792;2022-08-01T00:34:35;97553.38;;;21.41;100.00
44996;BME280;30729;49.486;10.792;2022-08-01T00:37:00;97551.28;;;21.42;100.00
44996;BME280;30729;49.486;10.792;2022-08-01T00:39:26;97560.75;;;21.31;100.00
44996;BME280;30729;49.486;10.792;2022-08-01T00:41:51;97554.06;;;21.28;100.00
44996;BME280;30729;49.486;10.792;2022-08-01T00:44:16;97555.94;;;21.26;100.00
44996;BME280;30729;49.486;10.792;2022-08-01T00:46:42;97562.13;;;21.24;100.00
44996;BME280;30729;49.486;10.792;2022-08-01T00:49:07;97558.97;;;21.28;100.00
44996;BME280;30729;49.486;10.792;2022-08-01T00:51:33;97562.25;;;21.19;100.00
44996;BME280;30729;49.486;10.792;2022-08-01T00:53:59;97565.94;;;21.13;100.00
44996;BME280;30729;49.486;10.792;2022-08-01T00:56:26;97564.41;;;21.12;100.00
44996;BME280;30729;49.486;10.792;2022-08-01T00:58:53;97566.34;;;21.04;100.00
44996;BME280;30729;49.486;10.792;2022-08-01T01:01:18;97560.59;;;21.10;100.00
44996;BME280;30729;49.486;10.792;2022-08-01T01:03:47;97556.78;;;21.07;100.00
44996;BME280;30729;49.486;10.792;2022-08-01T01:06:21;97565.28;;;21.07;100.00
44996;BME280;30729;49.486;10.792;2022-08-01T01:09:06;97565.31;;;21.21;100.00
44996;BME280;30729;49.486;10.792;2022-08-01T01:17:32;97568.88;;;21.53;100.00
44996;BME280;30729;49.486;10.792;2022-08-01T01:20:02;97562.53;;;21.47;100.00
44996;BME280;30729;49.486;10.792;2022-08-01T01:31:08;97568.88;;;21.53;100.00
44996;BME280;30729;49.486;10.792;2022-08-01T01:33:37;97572.78;;;21.50;100.00
44996;BME280;30729;49.486;10.792;2022-08-01T01:36:08;97568.66;;;21.51;100.00
44996;BME280;30729;49.486;10.792;2022-08-01T01:38:39;97571.69;;;21.53;100.00
44996;BME280;30729;49.486;10.792;2022-08-01T01:43:33;97570.38;;;21.81;100.00
44996;BME280;30729;49.486;10.792;2022-08-01T01:46:02;97573.78;;;21.79;100.00
44996;BME280;30729;49.486;10.792;2022-08-01T01:48:28;97576.50;;;21.85;100.00
44996;BME280;30729;49.486;10.792;2022-08-01T01:50:54;97582.16;;;21.85;100.00
44996;BME280;30729;49.486;10.792;2022-08-01T01:53:22;97577.94;;;21.92;100.00
44996;BME280;30729;49.486;10.792;2022-08-01T01:55:51;97582.41;;;21.87;100.00
44996;BME280;30729;49.486;10.792;2022-08-01T01:58:17;97573.78;;;21.93;100.00
44996;BME280;30729;49.486;10.792;2022-08-01T02:00:45;97574.34;;;21.91;100.00
44996;BME280;30729;49.486;10.792;2022-08-01T02:03:13;97579.78;;;21.89;100.00
44996;BME280;30729;49.486;10.792;2022-08-01T02:05:40;97579.25;;;21.91;100.00
44996;BME280;30729;49.486;10.792;2022-08-01T02:08:08;97587.19;;;21.92;100.00
44996;BME280;30729;49.486;10.792;2022-08-01T02:10:35;97589.72;;;21.82;100.00
44996;BME280;30729;49.486;10.792;2022-08-01T02:13:05;97590.03;;;21.79;100.00
44996;BME280;30729;49.486;10.792;2022-08-01T02:15:33;97592.19;;;21.86;100.00
44996;BME280;30729;49.486;10.792;2022-08-01T02:18:01;97595.03;;;21.86;100.00
44996;BME280;30729;49.486;10.792;2022-08-01T02:20:29;97594.16;;;21.51;100.00
44996;BME280;30729;49.486;10.792;2022-08-01T02:23:07;97595.81;;;21.28;100.00
44996;BME280;30729;49.486;10.792;2022-08-01T02:25:38;97604.50;;;21.17;100.00
44996;BME280;30729;49.486;10.792;2022-08-01T02:28:07;97607.50;;;21.05;100.00
44996;BME280;30729;49.486;10.792;2022-08-01T02:30:35;97606.41;;;20.95;100.00
44996;BME280;30729;49.486;10.792;2022-08-01T02:33:17;97609.22;;;20.76;100.00
44996;BME280;30729;49.486;10.792;2022-08-01T02:35:46;97614.53;;;20.67;100.00
44996;BME280;30729;49.486;10.792;2022-08-01T02:38:14;97613.69;;;20.53;100.00
44996;BME280;30729;49.486;10.792;2022-08-01T02:40:41;97623.72;;;20.73;100.00
44996;BME280;30729;49.486;10.792;2022-08-01T02:43:09;97613.38;;;20.56;100.00
44996;BME280;30729;49.486;10.792;2022-08-01T02:45:37;97620.47;;;20.44;100.00
44996;BME280;30729;49.486;10.792;2022-08-01T02:48:09;97622.22;;;20.28;100.00
44996;BME280;30729;49.486;10.792;2022-08-01T02:50:36;97619.16;;;20.26;100.00
44996;BME280;30729;49.486;10.792;2022-08-01T02:53:02;97625.28;;;20.30;100.00
44996;BME280;30729;49.486;10.792;2022-08-01T02:55:32;97617.16;;;20.40;100.00
44996;BME280;30729;49.486;10.792;2022-08-01T02:58:00;97621.84;;;20.37;100.00
44996;BME280;30729;49.486;10.792;2022-08-01T03:00:27;97614.16;;;20.13;100.00
44996;BME280;30729;49.486;10.792;2022-08-01T03:02:55;97622.31;;;19.98;100.00
44996;BME280;30729;49.486;10.792;2022-08-01T03:05:22;97624.91;;;19.96;100.00
44996;BME280;30729;49.486;10.792;2022-08-01T03:07:49;97621.03;;;19.99;100.00
44996;BME280;30729;49.486;10.792;2022-08-01T03:10:17;97622.78;;;20.02;100.00
44996;BME280;30729;49.486;10.792;2022-08-01T03:12:43;97621.84;;;19.94;100.00
44996;BME280;30729;49.486;10.792;2022-08-01T03:15:11;97618.78;;;19.92;100.00
44996;BME280;30729;49.486;10.792;2022-08-01T03:17:40;97623.84;;;19.75;100.00
44996;BME280;30729;49.486;10.792;2022-08-01T03:20:07;97622.03;;;19.77;100.00
44996;BME280;30729;49.486;10.792;2022-08-01T03:22:34;97620.50;;;19.76;100.00
44996;BME280;30729;49.486;10.792;2022-08-01T03:25:02;97622.31;;;19.74;100.00
44996;BME280;30729;49.486;10.792;2022-08-01T03:27:29;97631.16;;;19.65;100.00
44996;BME280;30729;49.486;10.792;2022-08-01T03:29:56;97633.16;;;19.70;100.00
44996;BME280;30729;49.486;10.792;2022-08-01T03:32:23;97628.66;;;19.55;100.00
44996;BME280;30729;49.486;10.792;2022-08-01T03:34:50;97631.00;;;19.51;100.00
44996;BME280;30729;49.486;10.792;2022-08-01T03:37:24;97626.38;;;19.54;100.00
44996;BME280;30729;49.486;10.792;2022-08-01T03:40:06;97633.25;;;19.58;100.00
44996;BME280;30729;49.486;10.792;2022-08-01T03:42:44;97632.50;;;19.58;100.00
44996;BME280;30729;49.486;10.792;2022-08-01T03:45:19;97632.53;;;19.52;100.00
44996;BME280;30729;49.486;10.792;2022-08-01T03:47:46;97639.94;;;19.55;100.00
44996;BME280;30729;49.486;10.792;2022-08-01T03:50:14;97642.53;;;19.53;100.00
44996;BME280;30729;49.486;10.792;2022-08-01T03:52:43;97634.94;;;19.73;100.00
44996;BME280;30729;49.486;10.792;2022-08-01T03:55:11;97640.66;;;19.67;100.00
44996;BME280;30729;49.486;10.792;2022-08-01T03:57:38;97636.03;;;19.64;100.00
44996;BME280;30729;49.486;10.792;2022-08-01T04:00:06;97647.41;;;19.83;100.00
44996;BME280;30729;49.486;10.792;2022-08-01T04:02:33;97643.13;;;19.76;100.00
44996;BME280;30729;49.486;10.792;2022-08-01T04:04:59;97645.41;;;19.78;100.00
44996;BME280;30729;49.486;10.792;2022-08-01T04:07:30;97650.09;;;19.70;100.00
44996;BME280;30729;49.486;10.792;2022-08-01T04:09:56;97652.53;;;19.54;100.00
44996;BME280;30729;49.486;10.792;2022-08-01T04:12:22;97649.25;;;19.50;100.00
44996;BME280;30729;49.486;10.792;2022-08-01T04:14:48;97643.13;;;19.46;100.00
44996;BME280;30729;49.486;10.792;2022-08-01T04:17:15;97649.94;;;19.56;100.00
44996;BME280;30729;49.486;10.792;2022-08-01T04:19:41;97655.66;;;19.51;100.00
44996;BME280;30729;49.486;10.792;2022-08-01T04:22:08;97659.81;;;19.44;100.00
44996;BME280;30729;49.486;10.792;2022-08-01T04:24:35;97660.06;;;19.46;100.00
44996;BME280;30729;49.486;10.792;2022-08-01T04:27:06;97667.66;;;19.57;100.00
44996;BME280;30729;49.486;10.792;2022-08-01T04:29:33;97662.53;;;19.55;100.00
44996;BME280;30729;49.486;10.792;2022-08-01T04:31:59;97662.53;;;19.55;100.00
44996;BME280;30729;49.486;10.792;2022-08-01T04:34:28;97665.13;;;19.53;100.00
44996;BME280;30729;49.486;10.792;2022-08-01T04:36:56;97679.50;;;19.55;100.00
44996;BME280;30729;49.486;10.792;2022-08-01T04:39:26;97676.91;;;19.57;100.00
44996;BME280;30729;49.486;10.792;2022-08-01T04:41:54;97673.31;;;19.63;100.00
44996;BME280;30729;49.486;10.792;2022-08-01T04:44:22;97680.75;;;19.60;100.00
44996;BME280;30729;49.486;10.792;2022-08-01T04:46:48;97678.13;;;19.68;100.00
44996;BME280;30729;49.486;10.792;2022-08-01T04:49:15;97675.47;;;19.75;100.00
44996;BME280;30729;49.486;10.792;2022-08-01T04:51:55;97681.31;;;19.83;100.00
44996;BME280;30729;49.486;10.792;2022-08-01T04:54:26;97683.78;;;19.92;100.00
44996;BME280;30729;49.486;10.792;2022-08-01T04:56:53;97687.34;;;19.98;100.00
44996;BME280;30729;49.486;10.792;2022-08-01T04:59:19;97690.38;;;20.00;100.00
44996;BME280;30729;49.486;10.792;2022-08-01T05:02:03;97695.56;;;19.96;100.00
44996;BME280;30729;49.486;10.792;2022-08-01T05:04:28;97694.75;;;20.01;100.00
44996;BME280;30729;49.486;10.792;2022-08-01T05:06:54;97693.00;;;19.98;100.00
44996;BME280;30729;49.486;10.792;2022-08-01T05:09:19;97701.13;;;20.07;100.00
44996;BME280;30729;49.486;10.792;2022-08-01T05:11:45;97707.00;;;20.09;100.00
44996;BME280;30729;49.486;10.792;2022-08-01T05:14:10;97694.63;;;20.12;100.00
44996;BME280;30729;49.486;10.792;2022-08-01T05:16:36;97702.22;;;20.23;100.00
44996;BME280;30729;49.486;10.792;2022-08-01T05:19:01;97703.13;;;20.37;100.00
44996;BME280;30729;49.486;10.792;2022-08-01T05:21:27;97690.84;;;20.53;100.00
44996;BME280;30729;49.486;10.792;2022-08-01T05:23:53;97699.78;;;20.57;100.00
44996;BME280;30729;49.486;10.792;2022-08-01T05:26:18;97703.25;;;20.69;100.00
44996;BME280;30729;49.486;10.792;2022-08-01T05:28:43;97704.31;;;20.85;100.00
44996;BME280;30729;49.486;10.792;2022-08-01T05:31:09;97704.78;;;20.89;100.00
44996;BME280;30729;49.486;10.792;2022-08-01T05:33:34;97702.72;;;21.08;100.00
44996;BME280;30729;49.486;10.792;2022-08-01T05:36:00;97702.47;;;21.06;100.00
44996;BME280;30729;49.486;10.792;2022-08-01T05:38:25;97702.81;;;21.03;100.00
44996;BME280;30729;49.486;10.792;2022-08-01T05:40:50;97701.72;;;21.06;100.00
44996;BME280;30729;49.486;10.792;2022-08-01T05:43:16;97706.63;;;21.05;100.00
44996;BME280;30729;49.486;10.792;2022-08-01T05:45:41;97706.53;;;21.11;100.00
44996;BME280;30729;49.486;10.792;2022-08-01T05:48:06;97704.53;;;21.06;100.00
44996;BME280;30729;49.486;10.792;2022-08-01T05:50:32;97703.94;;;21.13;100.00
44996;BME280;30729;49.486;10.792;2022-08-01T05:52:58;97698.50;;;20.96;100.00
44996;BME280;30729;49.486;10.792;2022-08-01T05:55:23;97698.34;;;21.07;100.00
44996;BME280;30729;49.486;10.792;2022-08-01T05:57:48;97700.78;;;21.17;100.00
44996;BME280;30729;49.486;10.792;2022-08-01T06:00:14;97701.19;;;21.07;100.00
44996;BME280;30729;49.486;10.792;2022-08-01T06:02:44;97696.53;;;20.91;100.00
44996;BME280;30729;49.486;10.792;2022-08-01T06:05:10;97702.78;;;20.84;100.00
44996;BME280;30729;49.486;10.792;2022-08-01T06:07:35;97709.84;;;20.96;100.00
44996;BME280;30729;49.486;10.792;2022-08-01T06:10:01;97706.22;;;21.15;100.00
44996;BME280;30729;49.486;10.792;2022-08-01T06:12:26;97717.59;;;21.28;100.00
44996;BME280;30729;49.486;10.792;2022-08-01T06:14:52;97701.69;;;21.44;100.00
44996;BME280;30729;49.486;10.792;2022-08-01T06:17:17;97709.19;;;21.41;100.00
44996;BME280;30729;49.486;10.792;2022-08-01T06:19:42;97719.09;;;21.34;100.00
44996;BME280;30729;49.486;10.792;2022-08-01T06:22:08;97724.97;;;21.36;100.00
44996;BME280;30729;49.486;10.792;2022-08-01T06:24:33;97719.53;;;21.71;100.00
44996;BME280;30729;49.486;10.792;2022-08-01T06:26:58;97728.53;;;21.88;100.00
44996;BME280;30729;49.486;10.792;2022-08-01T06:29:24;97718.56;;;22.14;100.00
44996;BME280;30729;49.486;10.792;2022-08-01T06:31:49;97735.56;;;22.14;100.00
44996;BME280;30729;49.486;10.792;2022-08-01T06:34:15;97725.38;;;22.05;100.00
44996;BME280;30729;49.486;10.792;2022-08-01T06:36:40;97735.03;;;22.15;100.00
44996;BME280;30729;49.486;10.792;2022-08-01T06:39:06;97729.59;;;22.17;100.00
44996;BME280;30729;49.486;10.792;2022-08-01T06:41:31;97737.25;;;22.03;100.00
44996;BME280;30729;49.486;10.792;2022-08-01T06:43:57;97732.50;;;22.25;100.00
44996;BME280;30729;49.486;10.792;2022-08-01T06:46:22;97727.59;;;22.38;100.00
44996;BME280;30729;49.486;10.792;2022-08-01T06:48:47;97731.00;;;22.37;100.00
44996;BME280;30729;49.486;10.792;2022-08-01T06:51:13;97719.88;;;22.39;100.00
44996;BME280;30729;49.486;10.792;2022-08-01T06:53:41;97727.28;;;22.29;100.00
44996;BME280;30729;49.486;10.792;2022-08-01T06:56:07;97732.50;;;22.25;100.00
44996;BME280;30729;49.486;10.792;2022-08-01T06:58:34;97732.47;;;22.11;100.00
44996;BME280;30729;49.486;10.792;2022-08-01T07:01:00;97740.81;;;22.23;100.00
44996;BME280;30729;49.486;10.792;2022-08-01T07:03:25;97740.94;;;22.30;100.00
44996;BME280;30729;49.486;10.792;2022-08-01T07:05:51;97738.19;;;22.51;100.00
44996;BME280;30729;49.486;10.792;2022-08-01T07:08:16;97731.31;;;22.20;100.00
44996;BME280;30729;49.486;10.792;2022-08-01T07:10:42;97741.25;;;22.53;100.00
44996;BME280;30729;49.486;10.792;2022-08-01T07:13:08;97735.00;;;22.81;100.00
44996;BME280;30729;49.486;10.792;2022-08-01T07:15:33;97741.38;;;22.61;100.00
44996;BME280;30729;49.486;10.792;2022-08-01T07:17:59;97739.06;;;22.33;100.00
44996;BME280;30729;49.486;10.792;2022-08-01T07:20:26;97738.63;;;22.42;100.00
44996;BME280;30729;49.486;10.792;2022-08-01T07:22:52;97729.91;;;22.53;100.00
44996;BME280;30729;49.486;10.792;2022-08-01T07:25:17;97731.09;;;22.58;100.00
44996;BME280;30729;49.486;10.792;2022-08-01T07:27:42;97737.34;;;22.56;100.00
44996;BME280;30729;49.486;10.792;2022-08-01T07:30:09;97730.44;;;22.52;100.00
44996;BME280;30729;49.486;10.792;2022-08-01T07:32:35;97726.81;;;22.78;100.00
44996;BME280;30729;49.486;10.792;2022-08-01T07:35:02;97721.91;;;23.05;100.00
44996;BME280;30729;49.486;10.792;2022-08-01T07:37:27;97725.81;;;23.02;100.00
44996;BME280;30729;49.486;10.792;2022-08-01T07:39:52;97729.66;;;22.78;100.00
44996;BME280;30729;49.486;10.792;2022-08-01T07:42:18;97728.91;;;22.77;100.00
44996;BME280;30729;49.486;10.792;2022-08-01T07:44:43;97737.09;;;22.81;100.00
44996;BME280;30729;49.486;10.792;2022-08-01T07:47:09;97734.56;;;22.91;100.00
44996;BME280;30729;49.486;10.792;2022-08-01T07:49:34;97744.09;;;22.93;100.00
44996;BME280;30729;49.486;10.792;2022-08-01T07:52:00;97738.88;;;22.57;100.00
44996;BME280;30729;49.486;10.792;2022-08-01T07:54:25;97741.47;;;22.55;100.00
44996;BME280;30729;49.486;10.792;2022-08-01T07:56:53;97740.16;;;22.83;100.00
44996;BME280;30729;49.486;10.792;2022-08-01T07:59:18;97731.91;;;23.19;100.00
44996;BME280;30729;49.486;10.792;2022-08-01T08:01:48;97742.94;;;23.78;100.00
44996;BME280;30729;49.486;10.792;2022-08-01T08:04:14;97736.25;;;24.17;100.00
44996;BME280;30729;49.486;10.792;2022-08-01T08:06:39;97728.09;;;24.21;100.00
44996;BME280;30729;49.486;10.792;2022-08-01T08:09:06;97735.56;;;24.32;100.00
44996;BME280;30729;49.486;10.792;2022-08-01T08:11:32;97738.03;;;24.56;100.00
44996;BME280;30729;49.486;10.792;2022-08-01T08:13:57;97733.09;;;24.93;100.00
44996;BME280;30729;49.486;10.792;2022-08-01T08:16:22;97724.50;;;24.78;100.00
44996;BME280;30729;49.486;10.792;2022-08-01T08:18:48;97727.13;;;24.19;100.00
44996;BME280;30729;49.486;10.792;2022-08-01T08:21:13;97727.75;;;24.53;100.00
44996;BME280;30729;49.486;10.792;2022-08-01T08:23:38;97720.47;;;24.37;100.00
44996;BME280;30729;49.486;10.792;2022-08-01T08:26:22;97724.75;;;24.95;100.00
44996;BME280;30729;49.486;10.792;2022-08-01T08:28:48;97722.56;;;24.73;100.00
44996;BME280;30729;49.486;10.792;2022-08-01T08:31:14;97728.34;;;24.31;100.00
44996;BME280;30729;49.486;10.792;2022-08-01T08:33:39;97717.09;;;23.97;100.00
44996;BME280;30729;49.486;10.792;2022-08-01T08:36:05;97726.78;;;24.22;100.00
44996;BME280;30729;49.486;10.792;2022-08-01T08:38:30;97727.88;;;24.69;100.00
44996;BME280;30729;49.486;10.792;2022-08-01T08:40:56;97718.31;;;24.58;100.00
44996;BME280;30729;49.486;10.792;2022-08-01T08:43:22;97718.66;;;25.43;100.00
44996;BME280;30729;49.486;10.792;2022-08-01T08:45:50;97724.00;;;25.46;100.00
44996;BME280;30729;49.486;10.792;2022-08-01T08:48:16;97725.59;;;24.75;100.00
44996;BME280;30729;49.486;10.792;2022-08-01T08:50:43;97720.97;;;24.56;100.00
44996;BME280;30729;49.486;10.792;2022-08-01T08:53:13;97730.09;;;24.62;100.00
44996;BME280;30729;49.486;10.792;2022-08-01T08:55:40;97720.34;;;24.22;100.00
44996;BME280;30729;49.486;10.792;2022-08-01T08:58:11;97736.13;;;24.51;100.00
44996;BME280;30729;49.486;10.792;2022-08-01T09:00:39;97728.91;;;24.01;100.00
44996;BME280;30729;49.486;10.792;2022-08-01T09:03:05;97729.78;;;24.17;100.00
44996;BME280;30729;49.486;10.792;2022-08-01T09:05:30;97737.16;;;24.69;100.00
44996;BME280;30729;49.486;10.792;2022-08-01T09:07:55;97728.16;;;24.57;100.00
44996;BME280;30729;49.486;10.792;2022-08-01T09:10:21;97722.84;;;24.90;100.00
44996;BME280;30729;49.486;10.792;2022-08-01T09:13:06;97734.31;;;24.69;100.00
44996;BME280;30729;49.486;10.792;2022-08-01T09:15:58;97731.88;;;24.45;100.00
44996;BME280;30729;49.486;10.792;2022-08-01T09:18:35;97740.25;;;24.22;100.00
44996;BME280;30729;49.486;10.792;2022-08-01T09:23:50;97731.00;;;24.86;100.00
44996;BME280;30729;49.486;10.792;2022-08-01T09:26:19;97723.22;;;25.53;100.00
44996;BME280;30729;49.486;10.792;2022-08-01T09:28:46;97737.75;;;26.17;99.77
44996;BME280;30729;49.486;10.792;2022-08-01T09:31:14;97727.75;;;26.79;89.53
44996;BME280;30729;49.486;10.792;2022-08-01T09:34:00;97723.63;;;26.34;85.89
44996;BME280;30729;49.486;10.792;2022-08-01T09:36:50;97731.66;;;25.97;93.13
44996;BME280;30729;49.486;10.792;2022-08-01T09:39:30;97726.50;;;25.73;95.56
44996;BME280;30729;49.486;10.792;2022-08-01T09:41:58;97737.63;;;25.25;98.03
44996;BME280;30729;49.486;10.792;2022-08-01T09:44:43;97739.47;;;24.42;100.00
44996;BME280;30729;49.486;10.792;2022-08-01T09:47:09;97737.28;;;24.56;100.00
44996;BME280;30729;49.486;10.792;2022-08-01T09:49:36;97730.91;;;26.04;95.48
44996;BME280;30729;49.486;10.792;2022-08-01T09:54:37;97738.13;;;26.21;88.93
44996;BME280;30729;49.486;10.792;2022-08-01T09:57:13;97733.16;;;26.29;88.51
44996;BME280;30729;49.486;10.792;2022-08-01T09:59:41;97721.81;;;26.84;83.77
44996;BME280;30729;49.486;10.792;2022-08-01T10:02:12;97725.78;;;25.88;83.16
44996;BME280;30729;49.486;10.792;2022-08-01T10:04:50;97726.69;;;26.51;73.83
44996;BME280;30729;49.486;10.792;2022-08-01T10:07:17;97721.31;;;26.63;77.13
44996;BME280;30729;49.486;10.792;2022-08-01T10:09:43;97717.19;;;27.45;71.63
44996;BME280;30729;49.486;10.792;2022-08-01T10:12:10;97722.41;;;27.64;73.90
44996;BME280;30729;49.486;10.792;2022-08-01T10:14:37;97709.00;;;27.41;74.16
44996;BME280;30729;49.486;10.792;2022-08-01T10:17:03;97710.94;;;26.91;77.71
44996;BME280;30729;49.486;10.792;2022-08-01T10:19:31;97723.66;;;26.19;80.95
44996;BME280;30729;49.486;10.792;2022-08-01T10:21:58;97712.94;;;26.65;82.33
44996;BME280;30729;49.486;10.792;2022-08-01T10:24:25;97714.75;;;27.66;71.70
44996;BME280;30729;49.486;10.792;2022-08-01T10:26:55;97715.44;;;28.24;71.01
44996;BME280;30729;49.486;10.792;2022-08-01T10:29:24;97698.34;;;29.21;66.75
44996;BME280;30729;49.486;10.792;2022-08-01T10:31:51;97696.69;;;28.66;63.85
44996;BME280;30729;49.486;10.792;2022-08-01T10:34:16;97708.69;;;27.87;64.63
44996;BME280;30729;49.486;10.792;2022-08-01T10:36:47;97718.50;;;27.11;71.92
44996;BME280;30729;49.486;10.792;2022-08-01T10:39:13;97709.78;;;26.94;73.68
44996;BME280;30729;49.486;10.792;2022-08-01T10:41:40;97712.13;;;26.80;77.12
44996;BME280;30729;49.486;10.792;2022-08-01T10:44:08;97713.28;;;26.77;79.11
44996;BME280;30729;49.486;10.792;2022-08-01T10:46:37;97703.91;;;26.92;78.56
44996;BME280;30729;49.486;10.792;2022-08-01T10:49:07;97697.94;;;27.95;74.78
44996;BME280;30729;49.486;10.792;2022-08-01T10:51:37;97701.75;;;28.57;68.68
44996;BME280;30729;49.486;10.792;2022-08-01T10:54:05;97696.19;;;28.77;65.78
44996;BME280;30729;49.486;10.792;2022-08-01T10:56:49;97691.50;;;28.12;64.26
44996;BME280;30729;49.486;10.792;2022-08-01T10:59:27;97708.56;;;27.20;72.57
44996;BME280;30729;49.486;10.792;2022-08-01T11:02:29;97714.03;;;26.77;77.79
44996;BME280;30729;49.486;10.792;2022-08-01T11:04:58;97710.13;;;28.21;67.40
44996;BME280;30729;49.486;10.792;2022-08-01T11:07:48;97701.75;;;28.57;65.40
44996;BME280;30729;49.486;10.792;2022-08-01T11:10:23;97702.50;;;27.98;65.29
44996;BME280;30729;49.486;10.792;2022-08-01T11:12:50;97690.50;;;27.42;66.58
44996;BME280;30729;49.486;10.792;2022-08-01T11:15:17;97689.91;;;27.76;63.96
44996;BME280;30729;49.486;10.792;2022-08-01T11:17:50;97695.25;;;27.15;68.03
44996;BME280;30729;49.486;10.792;2022-08-01T11:25:23;97680.38;;;29.47;57.48
44996;BME280;30729;49.486;10.792;2022-08-01T11:27:48;97677.03;;;30.15;57.02
44996;BME280;30729;49.486;10.792;2022-08-01T11:32:54;97679.84;;;29.58;59.81
44996;BME280;30729;49.486;10.792;2022-08-01T11:35:21;97683.31;;;29.30;59.78
44996;BME280;30729;49.486;10.792;2022-08-01T11:37:50;97677.22;;;27.62;61.95
44996;BME280;30729;49.486;10.792;2022-08-01T11:40:23;97683.13;;;28.83;59.36
44996;BME280;30729;49.486;10.792;2022-08-01T11:42:51;97673.63;;;29.25;57.49
44996;BME280;30729;49.486;10.792;2022-08-01T11:45:49;97679.16;;;28.96;60.32
44996;BME280;30729;49.486;10.792;2022-08-01T11:48:33;97688.44;;;28.52;65.77
44996;BME280;30729;49.486;10.792;2022-08-01T11:50:58;97675.59;;;28.01;65.54
44996;BME280;30729;49.486;10.792;2022-08-01T11:53:23;97689.25;;;27.85;71.42
44996;BME280;30729;49.486;10.792;2022-08-01T11:55:51;97687.44;;;27.98;67.69
44996;BME280;30729;49.486;10.792;2022-08-01T11:58:26;97681.53;;;28.38;66.18
44996;BME280;30729;49.486;10.792;2022-08-01T12:00:52;97673.56;;;29.79;60.70
44996;BME280;30729;49.486;10.792;2022-08-01T12:03:24;97671.50;;;30.65;55.72
44996;BME280;30729;49.486;10.792;2022-08-01T12:05:50;97675.88;;;30.85;52.94
44996;BME280;30729;49.486;10.792;2022-08-01T12:08:30;97666.84;;;31.49;49.71
44996;BME280;30729;49.486;10.792;2022-08-01T12:10:58;97667.38;;;30.58;50.33
44996;BME280;30729;49.486;10.792;2022-08-01T12:13:23;97656.78;;;31.60;49.79
44996;BME280;30729;49.486;10.792;2022-08-01T12:15:49;97640.56;;;31.65;48.19
44996;BME280;30729;49.486;10.792;2022-08-01T12:18:17;97663.00;;;31.06;47.71
44996;BME280;30729;49.486;10.792;2022-08-01T12:20:44;97656.03;;;31.59;47.63
44996;BME280;30729;49.486;10.792;2022-08-01T12:23:12;97641.44;;;32.51;44.42
44996;BME280;30729;49.486;10.792;2022-08-01T12:25:39;97648.75;;;31.18;45.08
44996;BME280;30729;49.486;10.792;2022-08-01T12:28:07;97649.94;;;30.08;48.81
44996;BME280;30729;49.486;10.792;2022-08-01T12:30:34;97648.00;;;31.07;49.04
44996;BME280;30729;49.486;10.792;2022-08-01T12:33:01;97650.94;;;31.48;46.13
44996;BME280;30729;49.486;10.792;2022-08-01T12:35:29;97657.13;;;30.84;47.58
44996;BME280;30729;49.486;10.792;2022-08-01T12:37:57;97654.84;;;30.44;47.93
44996;BME280;30729;49.486;10.792;2022-08-01T12:40:24;97644.78;;;31.32;48.12
44996;BME280;30729;49.486;10.792;2022-08-01T12:42:52;97644.22;;;31.96;43.45
44996;BME280;30729;49.486;10.792;2022-08-01T12:45:20;97642.28;;;30.49;47.46
44996;BME280;30729;49.486;10.792;2022-08-01T12:47:47;97646.47;;;30.09;48.42
44996;BME280;30729;49.486;10.792;2022-08-01T12:50:15;97645.41;;;29.58;51.79
44996;BME280;30729;49.486;10.792;2022-08-01T12:52:41;97661.47;;;28.73;55.71
44996;BME280;30729;49.486;10.792;2022-08-01T12:55:14;97656.47;;;28.91;55.04
44996;BME280;30729;49.486;10.792;2022-08-01T12:57:43;97652.84;;;29.07;51.89
44996;BME280;30729;49.486;10.792;2022-08-01T13:02:47;97649.91;;;29.25;50.97
44996;BME280;30729;49.486;10.792;2022-08-01T13:05:15;97649.91;;;29.25;52.67
44996;BME280;30729;49.486;10.792;2022-08-01T13:10:08;97649.03;;;28.43;56.88
44996;BME280;30729;49.486;10.792;2022-08-01T13:12:34;97648.00;;;28.48;57.33
44996;BME280;30729;49.486;10.792;2022-08-01T13:15:23;97649.44;;;28.57;56.88
44996;BME280;30729;49.486;10.792;2022-08-01T13:17:50;97645.19;;;28.75;55.20
44996;BME280;30729;49.486;10.792;2022-08-01T13:20:44;97654.22;;;28.72;55.48
44996;BME280;30729;49.486;10.792;2022-08-01T13:23:17;97648.69;;;28.56;57.12